createdAt,value
2022-10-05T00:01:30.393Z,10.73
2022-10-05T00:04:12.150Z,10.90
2022-10-05T00:06:39.979Z,11.07
2022-10-05T00:09:15.245Z,10.90
2022-10-05T00:11:45.635Z,10.38
2022-10-05T00:14:18.898Z,10.80
2022-10-05T00:16:48.075Z,10.30
2022-10-05T00:19:23.663Z,10.23
2022-10-05T00:21:51.446Z,10.32
2022-10-05T00:24:20.499Z,10.07
2022-10-05T00:26:54.158Z,10.97
2022-10-05T00:29:25.206Z,10.83
2022-10-05T00:31:53.453Z,11.00
2022-10-05T00:34:21.672Z,11.70
2022-10-05T00:36:49.895Z,11.07
2022-10-05T00:39:18.592Z,10.63
2022-10-05T00:42:10.822Z,11.20
2022-10-05T00:44:49.762Z,11.10
2022-10-05T00:47:35.663Z,11.70
2022-10-05T00:50:23.340Z,11.60
2022-10-05T00:53:06.115Z,12.57
2022-10-05T00:55:51.036Z,10.90
2022-10-05T00:58:38.006Z,12.03
2022-10-05T01:01:13.536Z,12.27
2022-10-05T01:04:01.572Z,11.85
2022-10-05T01:06:41.965Z,11.83
2022-10-05T01:09:22.864Z,12.40
2022-10-05T01:12:01.510Z,11.97
2022-10-05T01:14:39.249Z,12.07
2022-10-05T01:17:20.309Z,12.80
2022-10-05T01:20:12.868Z,12.23
2022-10-05T01:23:13.411Z,12.35
2022-10-05T01:25:57.312Z,12.00
2022-10-05T01:28:35.450Z,12.13
2022-10-05T01:31:17.238Z,12.53
2022-10-05T01:33:55.403Z,12.30
2022-10-05T01:36:37.358Z,12.43
2022-10-05T01:39:16.658Z,12.63
2022-10-05T01:41:59.788Z,11.60
2022-10-05T01:44:40.598Z,11.63
2022-10-05T01:47:21.388Z,12.80
2022-10-05T01:50:00.602Z,11.77
2022-10-05T01:52:44.250Z,11.93
2022-10-05T01:55:24.867Z,11.67
2022-10-05T01:58:11.384Z,11.53
2022-10-05T02:00:52.589Z,11.20
2022-10-05T02:03:27.048Z,11.67
2022-10-05T02:06:01.385Z,11.87
2022-10-05T02:08:40.404Z,12.10
2022-10-05T02:11:13.536Z,12.13
2022-10-05T02:13:47.313Z,11.03
2022-10-05T02:16:25.878Z,11.37
2022-10-05T02:19:01.850Z,11.87
2022-10-05T02:21:34.482Z,11.80
2022-10-05T02:24:11.405Z,11.63
2022-10-05T02:26:41.462Z,12.38
2022-10-05T02:29:14.408Z,11.90
2022-10-05T02:31:54.716Z,11.95
2022-10-05T02:34:26.871Z,12.18
2022-10-05T02:37:20.931Z,12.52
2022-10-05T02:40:16.606Z,12.13
2022-10-05T02:42:56.411Z,12.48
2022-10-05T02:45:41.361Z,12.77
2022-10-05T02:48:26.023Z,12.37
2022-10-05T02:51:06.627Z,12.10
2022-10-05T02:53:46.595Z,12.67
2022-10-05T02:56:26.384Z,12.60
2022-10-05T02:59:09.438Z,12.33
2022-10-05T03:01:47.755Z,12.47
2022-10-05T03:04:34.213Z,12.53
2022-10-05T03:07:14.714Z,12.10
2022-10-05T03:10:00.874Z,12.30
2022-10-05T03:12:47.427Z,11.70
2022-10-05T03:15:55.465Z,11.37
2022-10-05T03:18:45.260Z,10.70
2022-10-05T03:21:35.492Z,11.40
2022-10-05T03:24:31.330Z,11.10
2022-10-05T03:27:12.789Z,10.30
2022-10-05T03:29:50.495Z,10.77
2022-10-05T03:32:31.915Z,10.30
2022-10-05T03:35:10.493Z,10.73
2022-10-05T03:37:49.003Z,10.50
2022-10-05T03:40:29.367Z,11.13
2022-10-05T03:43:19.123Z,10.40
2022-10-05T03:45:58.474Z,10.83
2022-10-05T03:48:33.485Z,11.03
2022-10-05T03:53:47.663Z,10.43
2022-10-05T03:56:29.917Z,11.83
2022-10-05T03:59:08.022Z,11.32
2022-10-05T04:01:44.745Z,11.68
2022-10-05T04:04:24.059Z,12.00
2022-10-05T04:06:57.654Z,11.63
2022-10-05T04:09:36.527Z,11.30
2022-10-05T04:12:15.000Z,10.50
2022-10-05T04:14:48.737Z,11.13
2022-10-05T04:17:27.576Z,11.50
2022-10-05T04:20:02.891Z,11.67
2022-10-05T04:22:40.035Z,10.87
2022-10-05T04:25:18.063Z,10.73
2022-10-05T04:27:57.322Z,11.40
2022-10-05T04:30:25.738Z,10.53
2022-10-05T04:33:00.390Z,10.50
2022-10-05T04:35:54.390Z,10.38
2022-10-05T04:38:47.653Z,10.40
2022-10-05T04:41:37.675Z,10.60
2022-10-05T04:44:28.268Z,10.33
2022-10-05T04:47:22.300Z,10.63
2022-10-05T04:50:19.820Z,10.30
2022-10-05T04:53:13.137Z,10.50
2022-10-05T04:55:56.331Z,11.17
2022-10-05T04:58:51.208Z,11.10
2022-10-05T05:01:47.911Z,10.50
2022-10-05T05:05:00.096Z,11.07
2022-10-05T05:07:44.646Z,11.07
2022-10-05T05:10:49.423Z,12.23
2022-10-05T05:13:58.268Z,11.63
2022-10-05T05:16:36.135Z,11.83
2022-10-05T05:19:41.132Z,12.23
2022-10-05T05:22:25.969Z,11.37
2022-10-05T05:25:15.742Z,11.15
2022-10-05T05:27:53.042Z,12.13
2022-10-05T05:30:30.156Z,11.33
2022-10-05T05:33:14.986Z,11.83
2022-10-05T05:36:24.271Z,11.82
2022-10-05T05:39:17.401Z,11.43
2022-10-05T05:42:01.800Z,11.27
2022-10-05T05:44:40.056Z,11.27
2022-10-05T05:47:20.464Z,10.80
2022-10-05T05:50:16.556Z,10.85
2022-10-05T05:52:51.517Z,10.50
2022-10-05T05:55:29.959Z,11.70
2022-10-05T05:58:11.007Z,10.77
2022-10-05T06:00:46.888Z,11.23
2022-10-05T06:03:24.304Z,11.43
2022-10-05T06:05:57.949Z,10.35
2022-10-05T06:08:39.211Z,10.65
2022-10-05T06:11:22.959Z,10.73
2022-10-05T06:13:51.857Z,10.73
2022-10-05T06:16:28.373Z,10.98
2022-10-05T06:19:05.264Z,10.67
2022-10-05T06:21:43.205Z,10.52
2022-10-05T06:24:21.653Z,10.68
2022-10-05T06:27:23.304Z,10.40
2022-10-05T06:30:07.007Z,10.18
2022-10-05T06:33:07.696Z,9.63
2022-10-05T06:35:57.660Z,9.82
2022-10-05T06:38:53.501Z,9.65
2022-10-05T06:41:40.524Z,9.65
2022-10-05T06:44:16.630Z,9.48
2022-10-05T06:47:01.669Z,9.23
2022-10-05T06:50:04.118Z,9.25
2022-10-05T06:53:29.291Z,9.20
2022-10-05T06:56:09.318Z,9.10
2022-10-05T06:59:09.391Z,8.88
2022-10-05T07:01:55.792Z,8.38
2022-10-05T07:05:04.374Z,8.60
2022-10-05T07:07:44.981Z,8.52
2022-10-05T07:10:31.489Z,8.00
2022-10-05T07:13:34.631Z,8.45
2022-10-05T07:16:22.658Z,8.23
2022-10-05T07:19:10.269Z,8.00
2022-10-05T07:21:58.039Z,7.88
2022-10-05T07:24:32.822Z,10.35
2022-10-05T07:27:21.015Z,12.75
2022-10-05T07:29:59.257Z,12.75
2022-10-05T07:32:36.681Z,12.45
2022-10-05T07:35:36.827Z,13.95
2022-10-05T07:38:14.873Z,6.45
2022-10-05T07:40:53.603Z,8.25
2022-10-05T07:44:00.932Z,8.38
2022-10-05T07:46:43.609Z,6.90
2022-10-05T07:49:24.375Z,8.32
2022-10-05T07:52:00.351Z,7.70
2022-10-05T07:54:40.473Z,7.22
2022-10-05T07:57:22.133Z,8.82
2022-10-05T08:00:01.769Z,8.45
2022-10-05T08:02:49.016Z,8.35
2022-10-05T08:05:26.408Z,5.03
2022-10-05T08:08:06.591Z,7.28
2022-10-05T08:10:42.837Z,5.03
2022-10-05T08:13:25.441Z,9.32
2022-10-05T08:16:03.723Z,6.75
2022-10-05T08:18:56.446Z,7.03
2022-10-05T08:21:35.713Z,8.18
2022-10-05T08:24:15.603Z,7.88
2022-10-05T08:26:55.363Z,9.70
2022-10-05T08:29:32.813Z,9.45
2022-10-05T08:32:06.349Z,10.38
2022-10-05T08:34:45.895Z,9.30
2022-10-05T08:37:21.586Z,7.25
2022-10-05T08:40:00.507Z,7.57
2022-10-05T08:43:01.919Z,4.60
2022-10-05T08:45:50.974Z,5.32
2022-10-05T08:48:59.829Z,5.65
2022-10-05T08:52:21.490Z,5.32
2022-10-05T08:55:28.050Z,4.30
2022-10-05T08:58:36.089Z,4.78
2022-10-05T09:01:19.172Z,4.40
2022-10-05T09:04:19.689Z,4.57
2022-10-05T09:07:40.536Z,4.40
2022-10-05T09:11:00.928Z,4.03
2022-10-05T09:14:07.106Z,4.53
2022-10-05T09:17:04.969Z,4.40
2022-10-05T09:20:10.401Z,4.20
2022-10-05T09:23:14.474Z,4.10
2022-10-05T09:25:57.388Z,3.90
2022-10-05T09:28:36.463Z,4.00
2022-10-05T09:31:31.757Z,3.85
2022-10-05T09:34:52.016Z,3.72
2022-10-05T09:38:08.285Z,4.00
2022-10-05T09:41:25.450Z,3.78
2022-10-05T09:44:33.791Z,3.80
2022-10-05T09:47:39.012Z,4.00
2022-10-05T09:50:49.676Z,3.70
2022-10-05T09:53:54.069Z,4.50
2022-10-05T09:56:57.304Z,3.30
2022-10-05T10:00:21.569Z,3.20
2022-10-05T10:03:20.999Z,3.20
2022-10-05T10:06:28.697Z,3.33
2022-10-05T10:09:26.869Z,2.97
2022-10-05T10:12:29.948Z,3.33
2022-10-05T10:15:40.266Z,2.88
2022-10-05T10:18:29.585Z,3.35
2022-10-05T10:21:33.037Z,2.70
2022-10-05T10:24:30.645Z,3.17
2022-10-05T10:27:20.002Z,3.45
2022-10-05T10:30:27.600Z,3.20
2022-10-05T10:33:23.194Z,2.90
2022-10-05T10:36:06.070Z,3.35
2022-10-05T10:38:58.632Z,3.10
2022-10-05T10:42:10.183Z,3.10
2022-10-05T10:45:05.582Z,3.00
2022-10-05T10:47:50.337Z,3.35
2022-10-05T10:50:55.393Z,3.10
2022-10-05T10:54:04.310Z,3.00
2022-10-05T10:57:06.048Z,3.00
2022-10-05T11:00:23.399Z,3.47
2022-10-05T11:03:41.788Z,3.45
2022-10-05T11:06:50.331Z,3.40
2022-10-05T11:09:54.772Z,3.47
2022-10-05T11:13:12.362Z,3.38
2022-10-05T11:16:26.130Z,3.70
2022-10-05T11:19:40.517Z,2.95
2022-10-05T11:22:50.158Z,3.05
2022-10-05T11:25:56.061Z,3.53
2022-10-05T11:28:56.467Z,3.58
2022-10-05T11:32:12.372Z,3.10
2022-10-05T11:35:31.009Z,3.00
2022-10-05T11:38:21.838Z,2.90
2022-10-05T11:41:20.620Z,3.35
2022-10-05T11:44:38.621Z,2.90
2022-10-05T11:47:20.030Z,3.10
2022-10-05T11:49:59.159Z,2.97
2022-10-05T11:52:40.373Z,2.70
2022-10-05T11:55:24.519Z,3.00
2022-10-05T11:57:58.086Z,2.40
2022-10-05T12:00:36.362Z,2.33
2022-10-05T12:03:30.223Z,2.63
2022-10-05T12:06:22.036Z,2.50
2022-10-05T12:09:10.829Z,2.78
2022-10-05T12:12:03.569Z,2.95
2022-10-05T12:14:49.272Z,2.85
2022-10-05T12:17:29.641Z,2.50
2022-10-05T12:20:05.394Z,2.33
2022-10-05T12:22:41.959Z,2.85
2022-10-05T12:25:26.107Z,2.47
2022-10-05T12:28:00.063Z,2.65
2022-10-05T12:30:53.998Z,2.30
2022-10-05T12:33:34.244Z,2.38
2022-10-05T12:36:11.142Z,2.00
2022-10-05T12:38:47.015Z,2.50
2022-10-05T12:41:25.350Z,2.30
2022-10-05T12:44:13.404Z,2.20
2022-10-05T12:46:58.417Z,2.53
2022-10-05T12:49:57.607Z,2.10
2022-10-05T12:52:46.911Z,2.30
2022-10-05T12:55:26.157Z,2.47
2022-10-05T12:58:13.103Z,2.13
2022-10-05T13:00:57.183Z,2.45
2022-10-05T13:03:30.290Z,2.50
2022-10-05T13:06:15.633Z,2.35
2022-10-05T13:11:33.347Z,2.33
2022-10-05T13:14:17.881Z,2.35
2022-10-05T13:16:55.382Z,2.30
2022-10-05T13:19:39.991Z,2.15
2022-10-05T13:22:27.295Z,2.40
2022-10-05T13:25:17.472Z,2.38
2022-10-05T13:27:51.991Z,2.03
2022-10-05T13:30:22.009Z,2.42
2022-10-05T13:33:00.152Z,2.10
2022-10-05T13:35:44.338Z,2.38
2022-10-05T13:38:36.665Z,2.47
2022-10-05T13:41:23.763Z,2.10
2022-10-05T13:44:13.864Z,2.38
2022-10-05T13:46:49.142Z,2.22
2022-10-05T13:49:28.831Z,2.42
2022-10-05T13:52:11.953Z,2.15
2022-10-05T13:54:50.862Z,2.70
2022-10-05T13:57:45.034Z,2.22
2022-10-05T14:00:19.460Z,1.90
2022-10-05T14:02:53.567Z,2.00
2022-10-05T14:05:24.699Z,2.20
2022-10-05T14:07:56.481Z,2.30
2022-10-05T14:10:39.241Z,2.40
2022-10-05T14:13:22.328Z,1.98
2022-10-05T14:16:20.498Z,2.30
2022-10-05T14:18:55.956Z,2.10
2022-10-05T14:21:26.308Z,2.03
2022-10-05T14:23:57.134Z,1.98
2022-10-05T14:26:35.795Z,1.75
2022-10-05T14:29:17.937Z,1.80
2022-10-05T14:31:55.230Z,2.05
2022-10-05T14:34:31.913Z,2.13
2022-10-05T14:37:09.941Z,2.15
2022-10-05T14:39:42.405Z,2.10
2022-10-05T14:42:19.189Z,1.70
2022-10-05T14:45:00.147Z,2.00
2022-10-05T14:47:32.009Z,2.00
2022-10-05T14:50:16.655Z,2.10
2022-10-05T14:52:59.317Z,2.28
2022-10-05T14:56:17.055Z,2.15
2022-10-05T14:59:29.737Z,1.95
2022-10-05T15:02:28.945Z,2.10
2022-10-05T15:05:03.631Z,1.80
2022-10-05T15:07:42.482Z,1.90
2022-10-05T15:10:32.674Z,2.35
2022-10-05T15:13:11.877Z,2.00
2022-10-05T15:15:49.839Z,1.88
2022-10-05T15:18:36.230Z,2.05
2022-10-05T15:21:33.449Z,1.90
2022-10-05T15:24:09.334Z,2.00
2022-10-05T15:26:50.962Z,1.92
2022-10-05T15:29:41.997Z,1.63
2022-10-05T15:32:41.441Z,2.10
2022-10-05T15:35:36.929Z,1.80
2022-10-05T15:38:21.150Z,1.70
2022-10-05T15:41:03.575Z,1.73
2022-10-05T15:43:47.457Z,2.50
2022-10-05T15:46:23.559Z,2.13
2022-10-05T15:49:16.149Z,1.80
2022-10-05T15:52:00.522Z,1.98
2022-10-05T15:54:59.297Z,1.80
2022-10-05T15:57:43.302Z,1.92
2022-10-05T16:00:14.696Z,1.80
2022-10-05T16:02:52.138Z,1.80
2022-10-05T16:06:06.400Z,1.77
2022-10-05T16:09:10.303Z,1.92
2022-10-05T16:11:58.426Z,1.60
2022-10-05T16:14:59.750Z,1.80
2022-10-05T16:17:50.350Z,1.73
2022-10-05T16:20:36.464Z,1.55
2022-10-05T16:23:21.282Z,1.77
2022-10-05T16:26:09.586Z,1.60
2022-10-05T16:28:55.266Z,1.73
2022-10-05T16:31:31.596Z,1.50
2022-10-05T16:34:17.089Z,1.52
2022-10-05T16:36:59.332Z,1.67
2022-10-05T16:39:51.484Z,1.77
2022-10-05T16:42:49.944Z,1.60
2022-10-05T16:45:44.764Z,1.60
2022-10-05T16:48:24.622Z,1.60
2022-10-05T16:51:25.467Z,1.95
2022-10-05T16:54:09.941Z,1.67
2022-10-05T16:56:46.144Z,1.88
2022-10-05T17:00:03.783Z,2.08
2022-10-05T17:02:53.044Z,1.83
2022-10-05T17:05:47.587Z,2.03
2022-10-05T17:09:10.515Z,1.95
2022-10-05T17:11:58.518Z,1.75
2022-10-05T17:14:50.130Z,1.80
2022-10-05T17:17:52.940Z,2.17
2022-10-05T17:20:42.969Z,2.10
2022-10-05T17:23:50.483Z,1.75
2022-10-05T17:26:56.658Z,2.10
2022-10-05T17:29:49.768Z,2.00
2022-10-05T17:32:37.201Z,2.25
2022-10-05T17:35:19.295Z,2.53
2022-10-05T17:38:15.045Z,1.90
2022-10-05T17:41:20.651Z,2.00
2022-10-05T17:44:19.513Z,2.20
2022-10-05T17:46:51.701Z,2.30
2022-10-05T17:49:27.358Z,2.03
2022-10-05T17:52:23.705Z,2.08
2022-10-05T17:55:40.475Z,1.90
2022-10-05T17:59:01.346Z,1.80
2022-10-05T18:01:45.306Z,1.95
2022-10-05T18:05:33.341Z,1.65
2022-10-05T18:08:48.427Z,1.60
2022-10-05T18:11:40.747Z,2.55
2022-10-05T18:14:19.649Z,2.40
2022-10-05T18:17:00.072Z,1.50
2022-10-05T18:19:32.224Z,2.08
2022-10-05T18:22:26.248Z,1.55
2022-10-05T18:25:08.145Z,1.60
2022-10-05T18:28:19.496Z,1.50
2022-10-05T18:31:16.405Z,1.50
2022-10-05T18:34:13.621Z,1.60
2022-10-05T18:37:12.923Z,1.52
2022-10-05T18:40:17.801Z,1.80
2022-10-05T18:43:02.244Z,1.58
2022-10-05T18:45:42.448Z,1.70
2022-10-05T18:48:28.051Z,1.55
2022-10-05T18:51:07.523Z,1.42
2022-10-05T18:53:47.230Z,1.42
2022-10-05T18:56:28.634Z,1.60
2022-10-05T18:59:19.632Z,1.63
2022-10-05T19:02:08.229Z,1.70
2022-10-05T19:04:57.460Z,1.80
2022-10-05T19:07:43.749Z,1.80
2022-10-05T19:10:28.897Z,1.70
2022-10-05T19:13:17.795Z,1.55
2022-10-05T19:16:00.444Z,1.88
2022-10-05T19:18:57.183Z,1.60
2022-10-05T19:21:40.398Z,1.65
2022-10-05T19:24:31.240Z,1.35
2022-10-05T19:27:38.440Z,1.90
2022-10-05T19:30:22.959Z,1.90
2022-10-05T19:33:21.535Z,1.67
2022-10-05T19:36:11.529Z,1.90
2022-10-05T19:39:05.887Z,1.67
2022-10-05T19:41:54.781Z,2.20
2022-10-05T19:44:47.461Z,1.83
2022-10-05T19:47:35.321Z,1.73
2022-10-05T19:50:28.005Z,1.90
2022-10-05T19:53:16.907Z,1.90
2022-10-05T19:55:49.720Z,1.85
2022-10-05T19:58:21.749Z,1.80
2022-10-05T20:00:57.454Z,2.33
2022-10-05T20:03:29.298Z,2.08
2022-10-05T20:05:59.582Z,2.10
2022-10-05T20:08:39.345Z,2.17
2022-10-05T20:11:16.115Z,2.03
2022-10-05T20:13:46.981Z,2.00
2022-10-05T20:16:47.286Z,2.25
2022-10-05T20:20:20.482Z,1.80
2022-10-05T20:22:49.699Z,2.00
2022-10-05T20:25:33.368Z,1.95
2022-10-05T20:28:02.918Z,2.10
2022-10-05T20:30:34.083Z,2.10
2022-10-05T20:33:10.307Z,2.25
2022-10-05T20:35:38.853Z,1.92
2022-10-05T20:38:06.628Z,2.50
2022-10-05T20:40:37.284Z,2.00
2022-10-05T20:43:08.067Z,2.10
2022-10-05T20:45:36.433Z,2.15
2022-10-05T20:48:05.915Z,2.67
2022-10-05T20:50:34.072Z,2.10
2022-10-05T20:53:01.820Z,2.00
2022-10-05T20:55:31.196Z,2.20
2022-10-05T20:58:02.210Z,2.10
2022-10-05T21:00:53.320Z,2.22
2022-10-05T21:03:22.795Z,2.40
2022-10-05T21:05:50.625Z,2.67
2022-10-05T21:08:18.816Z,1.92
2022-10-05T21:10:47.012Z,1.88
2022-10-05T21:13:14.792Z,2.00
2022-10-05T21:15:42.672Z,2.05
2022-10-05T21:18:10.820Z,2.05
2022-10-05T21:20:41.338Z,1.95
2022-10-05T21:23:09.086Z,2.33
2022-10-05T21:25:39.118Z,2.08
2022-10-05T21:28:09.079Z,2.20
2022-10-05T21:30:36.981Z,2.20
2022-10-05T21:33:04.740Z,2.20
2022-10-05T21:35:32.939Z,2.25
2022-10-05T21:38:02.125Z,2.20
2022-10-05T21:40:30.162Z,2.47
2022-10-05T21:42:58.380Z,2.55
2022-10-05T21:45:29.588Z,2.03
2022-10-05T21:47:57.901Z,2.55
2022-10-05T21:50:25.877Z,2.38
2022-10-05T21:52:54.752Z,2.45
2022-10-05T21:55:24.236Z,2.22
2022-10-05T21:57:52.438Z,2.55
2022-10-05T22:00:20.591Z,1.70
2022-10-05T22:02:49.524Z,2.00
2022-10-05T22:05:18.140Z,1.75
2022-10-05T22:07:46.058Z,2.05
2022-10-05T22:10:14.745Z,2.38
2022-10-05T22:12:46.243Z,2.22
2022-10-05T22:15:14.684Z,1.95
2022-10-05T22:17:43.265Z,1.38
2022-10-05T22:20:14.441Z,0.90
2022-10-05T22:22:42.279Z,0.70
2022-10-05T22:25:17.398Z,0.70
2022-10-05T22:27:49.110Z,0.50
2022-10-05T22:30:17.807Z,0.60
2022-10-05T22:32:45.625Z,0.82
2022-10-05T22:35:13.630Z,0.60
2022-10-05T22:37:41.419Z,0.60
2022-10-05T22:40:11.440Z,0.40
2022-10-05T22:42:40.515Z,0.60
2022-10-05T22:45:10.279Z,0.60
2022-10-05T22:47:38.041Z,0.70
2022-10-05T22:50:07.587Z,0.70
2022-10-05T22:52:35.415Z,0.63
2022-10-05T22:55:03.675Z,0.70
2022-10-05T22:57:38.036Z,0.60
2022-10-05T23:00:10.378Z,0.60
2022-10-05T23:02:39.839Z,0.80
2022-10-05T23:05:10.812Z,0.40
2022-10-05T23:07:41.831Z,0.80
2022-10-05T23:10:14.660Z,0.80
2022-10-05T23:12:43.591Z,0.70
2022-10-05T23:15:13.348Z,0.87
2022-10-05T23:17:41.354Z,1.20
2022-10-05T23:20:10.317Z,0.80
2022-10-05T23:22:38.902Z,0.93
2022-10-05T23:25:08.690Z,0.73
2022-10-05T23:27:38.310Z,0.80
2022-10-05T23:30:10.261Z,0.80
2022-10-05T23:32:42.098Z,0.80
2022-10-05T23:35:13.167Z,0.63
2022-10-05T23:37:44.043Z,0.83
2022-10-05T23:40:14.271Z,0.70
2022-10-05T23:42:42.659Z,0.80
2022-10-05T23:45:12.199Z,1.00
2022-10-05T23:47:41.541Z,0.80
2022-10-05T23:50:10.082Z,0.82
2022-10-05T23:52:37.965Z,0.80
2022-10-05T23:55:07.284Z,0.87
2022-10-05T23:57:35.283Z,0.93
